Terminal Aerodrome Forecast
Issued by NWS

Home | Current Version | Previous Version | Text Only | Print | Product List | Glossary On
Versions: 1 2 3 4 5 6 7 8 9 10 11 12 13 14 15 16 17 18 19 20 21 22 23 24 25 26 27 28 29 30
000
FTUS46 KSGX 210200 AAB
TAFSAN
TAF AMD
KSAN 210203Z 2102/2206 22004KT P6SM FEW014
     FM210600 VRB04KT P6SM BKN012
      TEMPO 2111/2115 5SM BR OVC007
     FM211800 VRB04KT P6SM SCT011
     FM212000 25009KT P6SM FEW014
     FM220200 26005KT P6SM BKN015=

USA.gov is the U.S. government's official web portal to all federal, state and local government web resources and services.